Time;durP1;ratioP1;P1;durP2;ratioP2;P2;SDS_P1;SDS_P2;PMS_P1;PMS_P2;Temp;Humidity;BMP_temperature;BMP_pressure;BME280_temperature;BME280_humidity;BME280_pressure;Samples;Min_cycle;Max_cycle;Signal;HPM_P1;HPM_P2
2022/07/20 04:00:37;;;;;;;7.68;4.72;;;16.80;95.40;;;;;;5896801;23;20040;-69
2022/07/20 04:03:02;;;;;;;8.77;4.50;;;16.70;95.40;;;;;;4974845;28;20044;-69
2022/07/20 04:05:28;;;;;;;8.45;4.93;;;16.80;95.70;;;;;;4974447;28;20098;-69
2022/07/20 04:07:54;;;;;;;6.68;4.53;;;16.90;95.80;;;;;;4974934;28;20067;-69
2022/07/20 04:10:19;;;;;;;7.63;4.65;;;16.90;95.70;;;;;;4975546;28;20031;-71
2022/07/20 04:12:45;;;;;;;5.88;4.30;;;17.10;95.70;;;;;;4978143;28;20116;-69
2022/07/20 04:15:11;;;;;;;6.45;4.60;;;17.10;95.60;;;;;;5000834;23;20051;-80
2022/07/20 04:17:40;;;;;;;6.43;4.22;;;17.10;95.50;;;;;;4978772;28;20122;-80
2022/07/20 04:20:06;;;;;;;5.88;4.43;;;17.10;95.60;;;;;;4976851;28;20089;-81
2022/07/20 04:22:31;;;;;;;7.57;4.47;;;17.10;95.60;;;;;;4978000;28;20043;-81
2022/07/20 04:24:57;;;;;;;6.93;4.78;;;17.00;95.70;;;;;;4976397;28;20024;-81
2022/07/20 04:27:22;;;;;;;6.50;4.65;;;17.00;96.00;;;;;;4976980;28;20661;-81
2022/07/20 04:29:48;;;;;;;7.28;4.45;;;17.10;95.80;;;;;;4977295;28;20079;-81
2022/07/20 04:32:14;;;;;;;8.43;4.53;;;17.10;95.60;;;;;;4976993;28;20039;-81
2022/07/20 04:34:39;;;;;;;9.02;5.03;;;17.10;95.70;;;;;;4978193;28;20473;-80
2022/07/20 04:37:05;;;;;;;9.13;4.07;;;17.00;95.80;;;;;;4976967;28;20067;-81
2022/07/20 04:39:31;;;;;;;5.90;4.13;;;17.10;96.00;;;;;;4978457;28;20035;-80
2022/07/20 04:41:56;;;;;;;6.97;4.30;;;17.10;96.00;;;;;;4977209;28;20039;-80
2022/07/20 04:44:22;;;;;;;7.85;4.15;;;17.20;95.90;;;;;;4977072;28;20031;-80
2022/07/20 04:46:48;;;;;;;7.00;4.68;;;17.20;95.80;;;;;;4976870;28;20035;-81
2022/07/20 04:49:13;;;;;;;5.63;4.40;;;17.40;95.60;;;;;;4978516;28;20508;-81
2022/07/20 04:51:39;;;;;;;8.05;4.60;;;17.40;95.50;;;;;;4978337;28;20043;-80
2022/07/20 04:54:04;;;;;;;7.10;4.43;;;17.50;95.60;;;;;;4976476;28;20038;-80
2022/07/20 04:56:30;;;;;;;6.45;4.25;;;17.50;95.30;;;;;;4976392;28;20047;-80
2022/07/20 04:58:56;;;;;;;6.60;4.10;;;17.60;95.20;;;;;;4976981;28;20481;-80
2022/07/20 05:01:23;;;;;;;10.80;4.53;;;17.80;95.20;;;;;;4976896;28;20041;-80
2022/07/20 05:03:49;;;;;;;8.90;4.20;;;17.70;95.10;;;;;;4977023;28;20027;-80
2022/07/20 05:06:14;;;;;;;9.48;4.25;;;17.70;95.30;;;;;;4978093;28;20094;-80
2022/07/20 05:08:40;;;;;;;6.88;4.25;;;17.70;95.70;;;;;;4976157;28;20078;-79
2022/07/20 05:11:06;;;;;;;8.73;4.50;;;17.60;96.20;;;;;;4977614;28;20102;-80
2022/07/20 05:13:31;;;;;;;10.98;4.90;;;17.70;96.00;;;;;;4977642;28;20031;-79
2022/07/20 05:15:57;;;;;;;8.52;4.82;;;17.70;96.10;;;;;;4976123;28;20103;-79
2022/07/20 05:18:23;;;;;;;8.00;4.38;;;17.90;95.80;;;;;;4977499;28;20102;-79
2022/07/20 05:20:48;;;;;;;7.20;4.20;;;17.90;95.10;;;;;;4977825;28;20035;-79
2022/07/20 05:23:14;;;;;;;13.85;5.20;;;18.10;95.10;;;;;;4976124;28;20072;-79
2022/07/20 05:25:39;;;;;;;10.73;5.70;;;18.30;95.10;;;;;;4975288;28;20043;-79
2022/07/20 05:28:08;;;;;;;12.18;6.13;;;18.40;95.00;;;;;;4977129;28;20065;-79
2022/07/20 05:30:34;;;;;;;11.65;5.13;;;18.60;94.60;;;;;;4976010;28;20035;-77
2022/07/20 05:33:00;;;;;;;13.88;6.07;;;18.80;94.40;;;;;;4977070;28;20039;-77
2022/07/20 05:35:26;;;;;;;10.60;5.82;;;18.80;94.10;;;;;;4976748;28;20477;-77
2022/07/20 05:37:51;;;;;;;8.93;5.30;;;18.90;93.80;;;;;;4978033;28;20059;-77
2022/07/20 05:40:18;;;;;;;9.13;5.10;;;19.00;93.40;;;;;;4976782;28;20028;-77
2022/07/20 05:42:43;;;;;;;7.65;5.32;;;19.20;92.70;;;;;;4975265;28;20039;-77
2022/07/20 05:45:09;;;;;;;11.10;5.60;;;19.30;92.60;;;;;;4974813;28;20489;-76
2022/07/20 05:47:35;;;;;;;8.13;5.38;;;19.30;91.80;;;;;;4975425;28;20039;-76
2022/07/20 05:50:00;;;;;;;7.03;5.13;;;19.40;92.00;;;;;;4976859;28;20028;-77
2022/07/20 05:52:26;;;;;;;9.38;6.00;;;19.50;92.00;;;;;;4978251;28;20039;-81
2022/07/20 05:54:51;;;;;;;9.98;5.88;;;19.60;92.30;;;;;;4976391;28;20714;-81
2022/07/20 05:57:17;;;;;;;12.15;5.65;;;19.70;92.30;;;;;;4973811;28;20067;-80
2022/07/20 05:59:43;;;;;;;6.95;4.40;;;19.70;92.20;;;;;;4980174;28;20070;-81
2022/07/20 06:02:09;;;;;;;9.57;5.30;;;20.00;91.60;;;;;;4986266;28;20047;-80
2022/07/20 06:04:35;;;;;;;10.88;4.80;;;20.00;91.30;;;;;;4977009;28;20045;-80
2022/07/20 06:07:00;;;;;;;7.10;4.20;;;20.00;91.60;;;;;;4979540;28;20510;-80
2022/07/20 06:09:26;;;;;;;9.93;4.13;;;20.00;91.20;;;;;;4977123;28;20110;-80
2022/07/20 06:11:52;;;;;;;11.10;4.28;;;20.20;91.30;;;;;;4979315;28;20043;-80
2022/07/20 06:14:17;;;;;;;9.88;3.97;;;20.20;90.80;;;;;;4977339;28;20036;-81
2022/07/20 06:16:43;;;;;;;6.55;4.18;;;20.40;90.50;;;;;;4977927;28;20043;-81
2022/07/20 06:19:08;;;;;;;5.85;3.92;;;20.60;89.70;;;;;;4980176;28;20075;-81
2022/07/20 06:21:34;;;;;;;12.02;3.97;;;20.70;90.00;;;;;;4979729;28;20397;-81
2022/07/20 06:23:59;;;;;;;5.68;3.83;;;20.80;88.90;;;;;;4978256;28;20035;-82
2022/07/20 06:26:25;;;;;;;8.68;3.53;;;21.00;87.60;;;;;;4978246;28;20118;-81
2022/07/20 06:28:50;;;;;;;5.75;4.00;;;21.10;86.60;;;;;;4978439;28;20102;-80
2022/07/20 06:31:16;;;;;;;8.07;3.67;;;21.30;85.80;;;;;;4978855;28;20510;-81
2022/07/20 06:33:42;;;;;;;7.05;3.90;;;21.50;86.40;;;;;;4978288;28;20035;-81
2022/07/20 06:36:08;;;;;;;9.43;3.88;;;21.70;86.20;;;;;;4977814;28;20035;-80
2022/07/20 06:38:34;;;;;;;6.82;3.47;;;21.70;85.50;;;;;;4979206;28;20024;-81
2022/07/20 06:41:01;;;;;;;6.65;4.10;;;21.80;85.10;;;;;;4978100;28;20415;-75
2022/07/20 06:43:26;;;;;;;12.25;4.35;;;22.00;85.10;;;;;;4977910;28;20043;-79
2022/07/20 06:45:52;;;;;;;8.70;3.70;;;22.00;85.00;;;;;;4976950;28;20027;-79
2022/07/20 06:48:17;;;;;;;10.05;3.67;;;22.20;85.00;;;;;;4977156;28;20045;-85
2022/07/20 06:50:43;;;;;;;10.70;4.03;;;22.20;84.30;;;;;;4977548;28;20121;-78
2022/07/20 06:53:09;;;;;;;6.85;4.13;;;22.40;83.90;;;;;;4977759;28;20035;-79
2022/07/20 06:55:35;;;;;;;8.43;3.90;;;22.50;83.10;;;;;;4978697;28;20083;-78
2022/07/20 06:58:01;;;;;;;10.18;3.95;;;22.60;82.40;;;;;;4985189;28;20452;-80
2022/07/20 07:00:27;;;;;;;8.05;4.03;;;22.80;81.70;;;;;;4980134;28;20398;-80
2022/07/20 07:02:53;;;;;;;6.03;3.40;;;23.10;81.20;;;;;;4963668;28;20506;-85
2022/07/20 07:05:18;;;;;;;8.38;3.85;;;23.30;79.40;;;;;;4961298;28;20060;-80
2022/07/20 07:07:44;;;;;;;5.88;3.47;;;23.50;79.70;;;;;;4961584;28;20123;-80
2022/07/20 07:10:09;;;;;;;9.25;3.92;;;23.80;78.00;;;;;;4961198;28;20046;-81
2022/07/20 07:12:35;;;;;;;7.25;3.53;;;24.00;78.00;;;;;;4962888;28;20059;-81
2022/07/20 07:15:01;;;;;;;5.53;3.17;;;24.20;75.60;;;;;;4956336;28;20412;-82
2022/07/20 07:17:27;;;;;;;7.80;3.22;;;24.50;74.80;;;;;;4955498;28;20493;-84
2022/07/20 07:19:53;;;;;;;5.65;3.33;;;24.70;74.70;;;;;;4955624;28;20039;-79
2022/07/20 07:22:18;;;;;;;4.22;3.40;;;25.00;74.80;;;;;;4956687;28;20066;-85
2022/07/20 07:24:44;;;;;;;7.90;3.90;;;25.10;73.60;;;;;;4973015;28;20027;-84
2022/07/20 07:27:10;;;;;;;6.63;3.97;;;25.30;73.60;;;;;;4976180;28;20123;-82
2022/07/20 07:29:35;;;;;;;8.68;3.58;;;25.50;73.40;;;;;;4974975;28;20060;-81
2022/07/20 07:32:01;;;;;;;6.07;3.35;;;25.70;71.80;;;;;;4976387;28;20043;-81
2022/07/20 07:34:27;;;;;;;5.35;3.20;;;25.90;71.90;;;;;;4976212;28;20070;-80
2022/07/20 07:36:53;;;;;;;8.73;3.67;;;26.30;71.60;;;;;;4976622;28;20035;-80
2022/07/20 07:39:19;;;;;;;4.30;3.40;;;26.40;71.00;;;;;;4978399;28;20036;-85
2022/07/20 07:41:44;;;;;;;6.47;3.80;;;26.60;69.80;;;;;;4976217;28;20413;-80
2022/07/20 07:44:10;;;;;;;6.47;3.33;;;26.80;69.50;;;;;;4977281;28;20039;-80
2022/07/20 07:46:36;;;;;;;5.82;3.40;;;27.00;69.40;;;;;;4981299;28;20492;-80
2022/07/20 07:49:03;;;;;;;5.03;3.10;;;27.30;67.80;;;;;;4981474;28;20389;-80
2022/07/20 07:51:29;;;;;;;8.30;3.65;;;27.60;66.70;;;;;;4978082;28;20616;-80
2022/07/20 07:53:55;;;;;;;9.20;3.78;;;27.90;66.60;;;;;;4980807;28;20087;-80
2022/07/20 07:56:21;;;;;;;9.52;3.67;;;27.90;66.50;;;;;;4988542;28;20480;-81
2022/07/20 07:58:46;;;;;;;5.93;3.42;;;28.00;66.30;;;;;;4996868;28;20149;-80
2022/07/20 08:01:12;;;;;;;6.45;3.70;;;28.20;66.50;;;;;;4998724;28;20493;-80
2022/07/20 08:03:38;;;;;;;9.30;3.45;;;28.40;66.00;;;;;;4997312;28;20432;-80
2022/07/20 08:06:04;;;;;;;7.65;3.33;;;28.70;64.90;;;;;;4997523;28;20077;-80
2022/07/20 08:08:30;;;;;;;7.80;3.67;;;28.80;65.00;;;;;;4997616;28;20031;-80
2022/07/20 08:10:56;;;;;;;6.00;3.40;;;29.10;64.80;;;;;;4998532;28;20405;-80
2022/07/20 08:13:22;;;;;;;6.20;3.50;;;29.40;63.80;;;;;;4998306;28;20042;-80
2022/07/20 08:15:48;;;;;;;8.13;3.55;;;29.70;61.80;;;;;;4997149;28;20045;-80
2022/07/20 08:18:13;;;;;;;6.03;3.58;;;29.90;60.60;;;;;;4998902;28;20046;-80
2022/07/20 08:20:39;;;;;;;7.30;3.33;;;30.00;60.80;;;;;;4997279;28;20042;-80
2022/07/20 08:23:04;;;;;;;7.65;3.40;;;30.20;61.50;;;;;;4996727;28;20039;-80
2022/07/20 08:25:30;;;;;;;6.53;3.50;;;30.40;60.30;;;;;;4999537;28;20057;-80
2022/07/20 08:28:09;;;;;;;5.20;3.35;;;30.70;60.30;;;;;;4998892;28;20035;-81
2022/07/20 08:30:34;;;;;;;7.00;3.53;;;31.00;59.20;;;;;;4999751;28;20121;-80
2022/07/20 08:33:00;;;;;;;5.50;3.60;;;30.90;59.30;;;;;;5000432;28;20572;-80
2022/07/20 08:35:25;;;;;;;7.38;3.53;;;31.10;58.40;;;;;;5000381;28;20042;-80
2022/07/20 08:37:51;;;;;;;9.20;3.83;;;31.30;58.00;;;;;;5000788;28;20396;-80
2022/07/20 08:40:16;;;;;;;8.05;3.47;;;31.30;58.60;;;;;;4998656;28;20035;-80
2022/07/20 08:42:42;;;;;;;8.00;3.42;;;31.20;57.80;;;;;;5000653;28;20102;-80
2022/07/20 08:45:09;;;;;;;7.53;3.63;;;31.30;59.80;;;;;;4998743;28;20550;-80
2022/07/20 08:47:39;;;;;;;6.30;3.50;;;31.40;57.40;;;;;;5002509;28;20031;-80
2022/07/20 08:50:05;;;;;;;7.47;3.65;;;31.60;57.30;;;;;;4999241;28;20041;-81
2022/07/20 08:52:31;;;;;;;8.15;3.50;;;31.80;56.40;;;;;;4998771;28;20031;-80
2022/07/20 08:54:57;;;;;;;12.07;3.60;;;31.90;55.50;;;;;;5000242;28;20082;-80
2022/07/20 08:57:22;;;;;;;9.43;3.50;;;32.10;55.60;;;;;;4997192;28;20034;-80
2022/07/20 08:59:48;;;;;;;8.75;4.07;;;32.30;57.30;;;;;;4976386;28;20091;-81
2022/07/20 09:02:15;;;;;;;5.97;3.65;;;32.50;56.30;;;;;;4978924;28;20066;-81
2022/07/20 09:04:54;;;;;;;11.68;4.10;;;32.50;56.50;;;;;;4979709;28;20043;-80
2022/07/20 09:07:44;;;;;;;5.03;3.75;;;32.40;55.90;;;;;;4978647;28;20189;-81
2022/07/20 09:10:18;;;;;;;9.13;4.32;;;32.70;55.40;;;;;;4959891;28;20114;-81
2022/07/20 09:13:02;;;;;;;8.65;3.83;;;32.90;55.90;;;;;;4969661;28;20046;-80
2022/07/20 09:15:42;;;;;;;11.45;4.15;;;33.10;54.80;;;;;;4971512;28;20109;-81
2022/07/20 09:18:29;;;;;;;8.13;3.72;;;33.40;53.80;;;;;;5010904;28;20595;-82
2022/07/20 09:20:57;;;;;;;7.85;4.03;;;33.30;55.40;;;;;;4977756;28;20031;-81
2022/07/20 09:23:29;;;;;;;14.02;4.53;;;33.30;54.10;;;;;;4982634;28;20120;-80
2022/07/20 09:26:07;;;;;;;8.25;3.70;;;33.20;55.30;;;;;;4978723;28;20488;-81
2022/07/20 09:28:39;;;;;;;7.85;4.85;;;33.40;52.90;;;;;;4980171;28;20765;-81
2022/07/20 09:31:12;;;;;;;9.05;4.88;;;33.50;50.70;;;;;;4978520;28;20109;-81
2022/07/20 09:33:38;;;;;;;8.80;4.47;;;33.60;50.40;;;;;;4979461;28;20031;-81
2022/07/20 09:36:06;;;;;;;9.43;5.10;;;33.80;48.40;;;;;;4979298;28;20078;-81
2022/07/20 09:38:40;;;;;;;8.18;4.15;;;33.90;48.30;;;;;;4978748;28;20090;-81
2022/07/20 09:41:22;;;;;;;10.27;4.53;;;33.90;49.50;;;;;;4979227;28;20572;-81
2022/07/20 09:43:48;;;;;;;8.98;4.72;;;33.90;48.80;;;;;;4980310;28;20035;-80
2022/07/20 09:46:19;;;;;;;9.90;4.65;;;33.90;49.40;;;;;;4978177;28;20488;-82
2022/07/20 09:48:50;;;;;;;10.50;4.50;;;33.90;50.50;;;;;;4979519;28;20425;-80
2022/07/20 09:51:20;;;;;;;6.70;4.35;;;33.70;50.70;;;;;;4980202;28;20059;-82
2022/07/20 09:53:47;;;;;;;10.63;4.70;;;33.90;49.20;;;;;;4977042;28;20035;-82
2022/07/20 09:56:16;;;;;;;10.93;4.88;;;34.00;48.80;;;;;;4977338;28;20106;-81
2022/07/20 09:58:47;;;;;;;9.07;4.78;;;34.00;49.20;;;;;;4978064;28;20039;-80
2022/07/20 10:01:29;;;;;;;11.48;4.80;;;34.10;48.70;;;;;;4978346;28;20075;-79
2022/07/20 10:03:57;;;;;;;8.27;5.25;;;34.20;48.70;;;;;;4979069;28;20035;-82
2022/07/20 10:06:25;;;;;;;8.70;4.80;;;34.20;50.00;;;;;;5011625;28;20035;-82
2022/07/20 10:08:50;;;;;;;10.20;5.00;;;34.30;49.40;;;;;;4977171;28;20059;-81
2022/07/20 10:11:18;;;;;;;7.63;4.97;;;34.40;48.70;;;;;;4977768;28;20075;-81
2022/07/20 10:13:45;;;;;;;9.57;5.20;;;34.70;49.60;;;;;;4977973;28;20087;-81
2022/07/20 10:16:22;;;;;;;8.68;5.03;;;35.00;48.90;;;;;;5000142;23;20050;-74
2022/07/20 10:18:48;;;;;;;9.38;5.30;;;35.20;48.30;;;;;;4976073;28;20517;-71
2022/07/20 10:21:37;;;;;;;11.43;5.47;;;35.40;47.60;;;;;;4975989;28;20058;-71
2022/07/20 10:24:22;;;;;;;11.80;6.13;;;35.40;47.60;;;;;;4976104;28;20082;-71
2022/07/20 10:27:02;;;;;;;9.07;5.65;;;35.20;50.10;;;;;;4975771;28;20599;-71
2022/07/20 10:29:29;;;;;;;12.77;5.45;;;35.20;49.60;;;;;;4976224;28;20106;-71
2022/07/20 10:31:58;;;;;;;13.52;5.60;;;35.20;48.60;;;;;;4975878;28;20078;-71
2022/07/20 10:34:49;;;;;;;11.57;5.57;;;35.30;49.30;;;;;;4975639;28;20124;-71
2022/07/20 10:37:23;;;;;;;14.10;5.80;;;35.40;48.90;;;;;;4976099;28;20042;-72
2022/07/20 10:39:51;;;;;;;15.02;6.07;;;35.40;48.40;;;;;;4975934;28;20528;-71
2022/07/20 10:42:30;;;;;;;10.63;5.93;;;35.40;49.20;;;;;;4974291;28;20054;-71
2022/07/20 10:45:27;;;;;;;11.68;6.35;;;35.30;49.20;;;;;;4975587;28;20566;-71
2022/07/20 10:47:53;;;;;;;13.85;6.20;;;35.50;49.40;;;;;;4974431;28;20757;-71
2022/07/20 10:50:21;;;;;;;12.20;6.70;;;35.60;48.40;;;;;;4975472;28;20035;-75
2022/07/20 10:52:49;;;;;;;16.10;7.03;;;35.90;47.80;;;;;;4975527;28;20503;-71
2022/07/20 10:55:33;;;;;;;12.63;6.15;;;35.90;48.20;;;;;;4976850;28;20039;-70
2022/07/20 10:58:19;;;;;;;13.55;5.95;;;36.20;47.10;;;;;;4973570;28;20087;-72
2022/07/20 11:00:57;;;;;;;14.40;6.03;;;36.60;47.70;;;;;;4972364;28;20035;-75
2022/07/20 11:03:29;;;;;;;10.65;6.28;;;36.70;46.40;;;;;;4975849;28;20039;-73
2022/07/20 11:06:10;;;;;;;8.48;6.22;;;36.70;47.10;;;;;;4975122;28;20038;-75
2022/07/20 11:08:37;;;;;;;13.77;6.45;;;36.50;46.10;;;;;;4975879;28;20082;-74
2022/07/20 11:11:03;;;;;;;9.15;6.30;;;36.70;47.20;;;;;;4974428;28;20031;-81
2022/07/20 11:13:29;;;;;;;8.32;6.20;;;36.80;46.70;;;;;;4974016;28;20077;-73
2022/07/20 11:15:58;;;;;;;9.02;6.28;;;36.90;46.20;;;;;;4974762;28;20068;-73
2022/07/20 11:18:29;;;;;;;10.20;6.43;;;36.90;46.20;;;;;;4973883;28;20412;-73
2022/07/20 11:20:58;;;;;;;10.27;6.55;;;37.10;46.50;;;;;;4978606;28;20034;-75
2022/07/20 11:23:37;;;;;;;8.65;6.45;;;37.30;47.10;;;;;;4978796;28;20047;-73
2022/07/20 11:26:03;;;;;;;8.93;6.50;;;37.50;45.50;;;;;;4978118;28;20041;-73
2022/07/20 11:28:31;;;;;;;10.77;6.28;;;37.90;46.60;;;;;;4979140;28;20035;-72
2022/07/20 11:30:58;;;;;;;8.95;6.40;;;38.00;45.40;;;;;;4978672;28;20023;-72
2022/07/20 11:33:27;;;;;;;8.02;6.47;;;38.10;43.80;;;;;;4978324;28;20079;-73
2022/07/20 11:35:55;;;;;;;9.45;6.15;;;37.90;44.30;;;;;;4978074;28;20572;-72
2022/07/20 11:38:20;;;;;;;7.25;6.28;;;37.70;45.00;;;;;;4978508;28;20035;-72
2022/07/20 11:41:00;;;;;;;10.68;6.07;;;37.80;45.00;;;;;;4978715;28;20549;-72
2022/07/20 11:43:26;;;;;;;10.05;6.90;;;37.80;43.90;;;;;;4978647;28;20047;-73
2022/07/20 11:45:51;;;;;;;10.13;6.90;;;37.90;44.20;;;;;;4977731;28;20070;-72
2022/07/20 11:48:26;;;;;;;11.32;6.75;;;38.30;44.10;;;;;;4978777;28;20043;-72
2022/07/20 11:50:52;;;;;;;10.30;7.00;;;38.10;44.40;;;;;;4978277;28;20062;-72
2022/07/20 11:53:41;;;;;;;8.13;7.20;;;38.40;44.50;;;;;;4978405;28;20039;-73
2022/07/20 11:56:21;;;;;;;13.50;8.00;;;38.20;44.40;;;;;;4971165;28;20536;-72
2022/07/20 11:58:50;;;;;;;9.40;7.82;;;38.30;44.30;;;;;;4978465;28;20035;-72
2022/07/20 12:01:23;;;;;;;11.15;7.90;;;38.60;44.70;;;;;;4977975;28;20039;-72
2022/07/20 12:03:52;;;;;;;9.38;7.80;;;38.70;44.00;;;;;;4978327;28;20087;-72
2022/07/20 12:06:18;;;;;;;13.45;8.93;;;38.60;43.80;;;;;;4977763;28;20039;-71
2022/07/20 12:08:44;;;;;;;13.68;9.45;;;38.40;45.00;;;;;;4978488;28;20031;-73
2022/07/20 12:11:11;;;;;;;15.38;9.18;;;38.80;45.20;;;;;;4976579;28;20067;-72
2022/07/20 12:13:50;;;;;;;14.23;9.00;;;38.60;46.10;;;;;;4977987;28;20031;-72
2022/07/20 12:16:17;;;;;;;10.57;9.32;;;38.90;45.00;;;;;;4977208;28;20039;-72
2022/07/20 12:18:45;;;;;;;12.15;9.32;;;38.90;45.00;;;;;;4977983;28;20038;-71
2022/07/20 12:21:15;;;;;;;14.93;9.43;;;38.90;44.30;;;;;;4977826;28;20172;-72
2022/07/20 12:23:42;;;;;;;13.05;10.02;;;39.10;44.80;;;;;;4977640;28;20067;-72
2022/07/20 12:26:32;;;;;;;16.73;11.10;;;38.70;45.00;;;;;;4977201;28;20039;-72
2022/07/20 12:29:24;;;;;;;17.85;11.25;;;39.00;45.00;;;;;;4977761;28;20492;-72
2022/07/20 12:32:05;;;;;;;14.55;10.10;;;39.10;48.60;;;;;;4976861;28;20468;-72
2022/07/20 12:34:47;;;;;;;15.32;10.25;;;38.90;45.10;;;;;;4975892;28;20067;-72
2022/07/20 12:37:13;;;;;;;13.35;10.73;;;39.40;45.20;;;;;;4977429;28;20067;-72
2022/07/20 12:39:47;;;;;;;13.30;9.95;;;39.60;44.90;;;;;;4977672;28;20067;-72
2022/07/20 12:42:13;;;;;;;18.00;9.77;;;40.10;45.00;;;;;;4977811;28;20031;-72
2022/07/20 12:44:39;;;;;;;13.80;10.18;;;40.10;43.70;;;;;;4976031;28;20032;-71
2022/07/20 12:47:07;;;;;;;13.20;9.68;;;39.70;43.80;;;;;;4977454;28;20473;-72
2022/07/20 12:49:33;;;;;;;12.55;10.30;;;39.60;43.80;;;;;;4975506;28;20046;-72
2022/07/20 12:52:01;;;;;;;14.48;9.85;;;39.50;43.90;;;;;;4976101;28;20039;-72
2022/07/20 12:54:27;;;;;;;11.85;9.75;;;39.90;44.40;;;;;;4977129;28;20042;-72
2022/07/20 12:56:53;;;;;;;14.20;9.13;;;40.10;43.70;;;;;;4977123;28;20041;-71
2022/07/20 12:59:19;;;;;;;15.63;9.68;;;39.80;42.20;;;;;;4976355;28;20039;-72
2022/07/20 13:01:53;;;;;;;13.40;10.35;;;39.90;43.20;;;;;;4977154;28;20039;-72
2022/07/20 13:04:20;;;;;;;14.63;11.18;;;39.90;43.50;;;;;;4977304;28;20103;-72
2022/07/20 13:06:52;;;;;;;16.13;10.98;;;39.40;43.80;;;;;;4975419;28;20118;-72
2022/07/20 13:09:21;;;;;;;12.23;10.07;;;39.20;44.40;;;;;;4977041;28;20036;-72
2022/07/20 13:11:48;;;;;;;12.25;10.63;;;39.60;44.30;;;;;;4977391;28;20036;-72
2022/07/20 13:14:19;;;;;;;14.52;9.88;;;39.70;43.30;;;;;;4976902;28;20035;-72
2022/07/20 13:16:46;;;;;;;15.50;9.60;;;40.10;43.20;;;;;;4976684;28;20063;-72
2022/07/20 13:19:12;;;;;;;13.63;9.40;;;40.10;43.60;;;;;;4977159;28;20031;-73
2022/07/20 13:21:39;;;;;;;12.35;9.65;;;40.30;42.60;;;;;;4977271;28;20071;-73
2022/07/20 13:24:05;;;;;;;14.00;9.52;;;40.90;43.20;;;;;;4976907;28;20078;-72
2022/07/20 13:26:31;;;;;;;16.30;10.13;;;40.70;42.70;;;;;;4976616;28;20094;-72
2022/07/20 13:28:57;;;;;;;13.32;9.15;;;40.70;42.30;;;;;;4977068;28;20090;-73
2022/07/20 13:31:22;;;;;;;12.77;9.27;;;39.80;42.40;;;;;;4977474;28;20063;-73
2022/07/20 13:33:48;;;;;;;11.90;9.23;;;38.70;43.60;;;;;;4977293;28;20493;-74
2022/07/20 13:36:14;;;;;;;14.52;9.75;;;37.90;45.30;;;;;;4976377;28;20039;-73
2022/07/20 13:38:40;;;;;;;10.60;9.50;;;37.10;46.50;;;;;;4976841;28;20544;-73
2022/07/20 13:41:08;;;;;;;15.65;10.40;;;36.50;47.70;;;;;;4976909;28;20038;-73
2022/07/20 13:43:34;;;;;;;20.00;11.90;;;35.90;49.40;;;;;;4976471;28;20126;-80
2022/07/20 13:46:00;;;;;;;15.75;12.90;;;35.50;51.20;;;;;;4974800;28;20777;-72
2022/07/20 13:48:26;;;;;;;17.60;12.35;;;35.10;52.40;;;;;;4976376;28;20043;-72
2022/07/20 13:50:53;;;;;;;15.63;12.70;;;34.80;53.10;;;;;;4976651;28;20028;-72
2022/07/20 13:53:20;;;;;;;16.63;12.25;;;34.50;53.70;;;;;;4976642;28;20042;-72
2022/07/20 13:55:49;;;;;;;16.20;11.90;;;34.30;53.40;;;;;;4976862;28;20035;-72
2022/07/20 13:58:14;;;;;;;20.77;11.85;;;34.20;53.80;;;;;;4976667;28;20030;-74
2022/07/20 14:00:40;;;;;;;19.38;11.65;;;34.00;54.20;;;;;;4982975;28;20035;-72
2022/07/20 14:03:06;;;;;;;15.93;12.30;;;33.60;54.40;;;;;;4995520;28;20077;-71
2022/07/20 14:05:31;;;;;;;18.70;12.75;;;33.30;55.20;;;;;;4995260;28;20158;-71
2022/07/20 14:07:57;;;;;;;16.92;12.98;;;33.10;56.10;;;;;;4995904;28;20046;-72
2022/07/20 14:10:23;;;;;;;14.30;12.63;;;32.80;56.40;;;;;;4995751;28;20081;-73
2022/07/20 14:12:48;;;;;;;24.98;13.38;;;32.70;57.10;;;;;;4996109;28;20397;-74
2022/07/20 14:15:17;;;;;;;21.73;13.25;;;32.40;57.50;;;;;;4995021;28;20034;-74
2022/07/20 14:17:43;;;;;;;16.55;12.95;;;32.40;58.00;;;;;;4996098;28;20567;-78
2022/07/20 14:20:11;;;;;;;18.27;13.02;;;32.30;58.30;;;;;;4995709;28;20106;-75
2022/07/20 14:22:37;;;;;;;17.35;12.65;;;32.30;58.80;;;;;;4994350;28;20050;-78
2022/07/20 14:25:05;;;;;;;15.43;12.18;;;32.40;58.40;;;;;;4995377;28;20027;-75
2022/07/20 14:27:32;;;;;;;14.38;12.20;;;32.50;58.20;;;;;;4994790;28;20411;-74
2022/07/20 14:30:01;;;;;;;20.35;12.45;;;32.60;57.90;;;;;;4996097;28;20125;-76
2022/07/20 14:32:30;;;;;;;20.83;12.98;;;32.60;57.60;;;;;;4994281;28;20039;-75
2022/07/20 14:34:55;;;;;;;17.70;12.43;;;32.80;57.80;;;;;;4995911;28;20118;-74
2022/07/20 14:37:21;;;;;;;17.30;12.80;;;33.10;57.30;;;;;;4995785;28;20034;-74
2022/07/20 14:39:49;;;;;;;18.23;12.52;;;33.40;56.90;;;;;;4995935;28;20077;-75
2022/07/20 14:42:15;;;;;;;15.23;12.48;;;34.00;56.20;;;;;;4995514;28;20074;-74
2022/07/20 14:44:40;;;;;;;16.48;11.10;;;34.90;54.10;;;;;;4996776;28;20042;-73
2022/07/20 14:47:06;;;;;;;14.50;11.52;;;34.90;54.20;;;;;;4995050;28;20042;-74
2022/07/20 14:49:32;;;;;;;18.50;11.55;;;34.90;54.60;;;;;;4993950;28;20349;-72
2022/07/20 14:51:57;;;;;;;21.30;11.70;;;34.70;54.90;;;;;;4995156;28;20046;-78
2022/07/20 14:54:23;;;;;;;14.88;11.70;;;34.40;54.80;;;;;;4995902;28;20037;-78
2022/07/20 14:56:52;;;;;;;14.18;12.00;;;34.20;54.60;;;;;;4995725;28;20026;-77
2022/07/20 14:59:18;;;;;;;16.75;12.00;;;34.10;55.40;;;;;;4996393;28;20086;-75
2022/07/20 15:01:44;;;;;;;14.85;11.98;;;34.30;55.00;;;;;;4993925;28;20796;-76
2022/07/20 15:04:09;;;;;;;16.23;12.05;;;34.40;55.10;;;;;;4993819;28;20421;-77
2022/07/20 15:06:37;;;;;;;17.48;12.25;;;34.70;55.30;;;;;;4992478;28;20054;-75
2022/07/20 15:09:04;;;;;;;19.63;11.82;;;35.20;54.60;;;;;;4995090;28;20038;-76
2022/07/20 15:11:32;;;;;;;14.77;11.45;;;34.90;53.60;;;;;;4996411;28;20533;-77
2022/07/20 15:13:57;;;;;;;16.48;12.07;;;35.50;54.00;;;;;;4994553;28;20125;-76
2022/07/20 15:16:23;;;;;;;11.90;10.65;;;38.70;50.20;;;;;;4994820;28;20390;-77
2022/07/20 15:18:48;;;;;;;16.67;11.57;;;41.90;46.00;;;;;;4995007;28;20509;-74
2022/07/20 15:21:14;;;;;;;13.73;10.57;;;44.60;41.30;;;;;;4993414;28;20034;-74
2022/07/20 15:23:41;;;;;;;12.13;10.13;;;45.70;39.40;;;;;;4993283;28;20039;-74
2022/07/20 15:26:10;;;;;;;15.13;10.70;;;46.60;38.40;;;;;;4994274;28;20026;-74
2022/07/20 15:28:37;;;;;;;14.50;10.45;;;46.50;37.20;;;;;;4992835;28;20054;-75
2022/07/20 15:31:02;;;;;;;11.60;10.00;;;46.80;37.40;;;;;;4993269;28;20042;-75
2022/07/20 15:33:28;;;;;;;11.07;10.00;;;46.80;37.70;;;;;;4995590;28;20370;-75
2022/07/20 15:35:56;;;;;;;14.07;10.52;;;47.10;36.00;;;;;;4993826;28;20432;-75
2022/07/20 15:38:22;;;;;;;11.93;10.73;;;47.10;35.70;;;;;;4994973;28;20042;-78
2022/07/20 15:40:48;;;;;;;11.20;9.80;;;46.70;35.30;;;;;;4994934;28;20046;-77
2022/07/20 15:43:13;;;;;;;14.80;10.10;;;46.80;35.60;;;;;;4994608;28;20042;-76
2022/07/20 15:45:44;;;;;;;11.27;9.77;;;46.90;37.30;;;;;;4994403;28;20035;-74
2022/07/20 15:48:10;;;;;;;13.07;9.85;;;47.00;35.00;;;;;;4993207;28;20509;-75
2022/07/20 15:50:35;;;;;;;11.93;9.82;;;46.80;35.40;;;;;;4993048;28;20030;-75
2022/07/20 15:53:01;;;;;;;13.52;12.13;;;45.90;35.70;;;;;;4994778;28;20050;-76
2022/07/20 15:55:27;;;;;;;12.48;10.55;;;45.40;38.30;;;;;;4994539;28;20436;-76
2022/07/20 15:57:52;;;;;;;11.88;10.63;;;44.10;38.80;;;;;;4994993;28;20054;-76
2022/07/20 16:00:20;;;;;;;15.18;10.90;;;43.00;39.20;;;;;;4997291;28;20045;-80
2022/07/20 16:02:46;;;;;;;12.13;10.93;;;42.80;41.40;;;;;;4996595;28;20039;-81
2022/07/20 16:05:14;;;;;;;15.02;10.95;;;44.30;39.80;;;;;;5001460;28;20122;-81
2022/07/20 16:07:41;;;;;;;11.98;10.73;;;45.80;39.20;;;;;;5001481;28;20129;-75
2022/07/20 16:10:07;;;;;;;11.50;10.43;;;46.40;37.40;;;;;;4997182;28;20039;-76
2022/07/20 16:12:33;;;;;;;14.38;11.75;;;45.90;36.90;;;;;;4998988;28;20035;-73
2022/07/20 16:14:58;;;;;;;17.08;11.10;;;44.00;37.70;;;;;;5022639;23;20489;-81
2022/07/20 16:17:24;;;;;;;15.38;10.90;;;41.70;40.70;;;;;;4976602;28;20080;-84
2022/07/20 16:19:49;;;;;;;16.00;12.07;;;39.80;43.30;;;;;;4979345;28;20162;-81
2022/07/20 16:22:15;;;;;;;18.73;13.48;;;38.30;46.10;;;;;;4978874;28;20035;-82
2022/07/20 16:24:41;;;;;;;12.20;10.98;;;37.30;48.00;;;;;;4978668;28;20118;-77
2022/07/20 16:27:06;;;;;;;14.30;11.77;;;36.50;49.20;;;;;;4979912;28;20031;-81
2022/07/20 16:29:32;;;;;;;14.20;12.43;;;36.00;50.10;;;;;;4977736;28;20517;-80
2022/07/20 16:31:58;;;;;;;15.35;12.30;;;35.70;50.90;;;;;;4982858;28;20046;-80
2022/07/20 16:34:24;;;;;;;21.83;12.63;;;35.40;51.90;;;;;;4977696;28;20063;-77
2022/07/20 16:36:50;;;;;;;17.27;12.00;;;35.50;52.20;;;;;;4977227;28;20497;-77
2022/07/20 16:39:18;;;;;;;14.70;12.40;;;35.30;52.30;;;;;;4977185;28;20046;-79
2022/07/20 16:41:44;;;;;;;14.20;11.80;;;35.40;52.60;;;;;;4966098;28;20044;-76